sensor_id;sensor_type;location;lat;lon;timestamp;temperature;humidity
674;DHT22;319;48.764;9.174;2023-03-30T00:01:55;17.00;87.50
674;DHT22;319;48.764;9.174;2023-03-30T00:04:23;17.00;87.50
674;DHT22;319;48.764;9.174;2023-03-30T00:06:51;16.90;87.60
674;DHT22;319;48.764;9.174;2023-03-30T00:09:18;17.00;87.70
674;DHT22;319;48.764;9.174;2023-03-30T00:11:47;17.00;87.50
674;DHT22;319;48.764;9.174;2023-03-30T00:14:14;17.00;87.30
674;DHT22;319;48.764;9.174;2023-03-30T00:16:44;17.00;87.50
674;DHT22;319;48.764;9.174;2023-03-30T00:19:11;17.00;87.70
674;DHT22;319;48.764;9.174;2023-03-30T00:21:39;17.00;87.90
674;DHT22;319;48.764;9.174;2023-03-30T00:24:06;17.10;87.90
674;DHT22;319;48.764;9.174;2023-03-30T00:26:33;17.10;88.00
674;DHT22;319;48.764;9.174;2023-03-30T00:29:00;17.10;88.20
674;DHT22;319;48.764;9.174;2023-03-30T00:31:27;17.10;88.40
674;DHT22;319;48.764;9.174;2023-03-30T00:33:53;17.10;88.50
674;DHT22;319;48.764;9.174;2023-03-30T00:36:20;17.10;88.70
674;DHT22;319;48.764;9.174;2023-03-30T00:38:48;17.00;89.00
674;DHT22;319;48.764;9.174;2023-03-30T00:41:15;17.00;89.50
674;DHT22;319;48.764;9.174;2023-03-30T00:43:58;17.00;89.80
674;DHT22;319;48.764;9.174;2023-03-30T00:46:25;16.90;90.00
674;DHT22;319;48.764;9.174;2023-03-30T00:48:53;16.90;90.00
674;DHT22;319;48.764;9.174;2023-03-30T00:51:24;16.90;90.10
674;DHT22;319;48.764;9.174;2023-03-30T00:53:55;16.90;90.10
674;DHT22;319;48.764;9.174;2023-03-30T00:56:26;16.90;90.20
674;DHT22;319;48.764;9.174;2023-03-30T00:58:54;16.90;90.30
674;DHT22;319;48.764;9.174;2023-03-30T01:01:21;16.90;90.40
674;DHT22;319;48.764;9.174;2023-03-30T01:03:54;16.90;90.50
674;DHT22;319;48.764;9.174;2023-03-30T01:06:24;16.90;90.50
674;DHT22;319;48.764;9.174;2023-03-30T01:08:56;16.90;90.60
674;DHT22;319;48.764;9.174;2023-03-30T01:11:24;16.90;90.60
674;DHT22;319;48.764;9.174;2023-03-30T01:13:54;17.00;90.60
674;DHT22;319;48.764;9.174;2023-03-30T01:16:26;17.00;90.50
674;DHT22;319;48.764;9.174;2023-03-30T01:19:03;17.00;90.60
674;DHT22;319;48.764;9.174;2023-03-30T01:25:02;17.10;90.70
674;DHT22;319;48.764;9.174;2023-03-30T01:27:56;17.10;90.70
674;DHT22;319;48.764;9.174;2023-03-30T01:30:36;17.00;90.70
674;DHT22;319;48.764;9.174;2023-03-30T01:33:29;17.00;90.90
674;DHT22;319;48.764;9.174;2023-03-30T01:39:24;16.80;92.10
674;DHT22;319;48.764;9.174;2023-03-30T01:41:57;16.80;92.70
674;DHT22;319;48.764;9.174;2023-03-30T01:44:31;16.70;93.00
674;DHT22;319;48.764;9.174;2023-03-30T01:47:04;16.70;93.50
674;DHT22;319;48.764;9.174;2023-03-30T01:49:38;16.60;94.00
674;DHT22;319;48.764;9.174;2023-03-30T01:52:13;16.60;94.40
674;DHT22;319;48.764;9.174;2023-03-30T01:54:46;16.50;95.00
674;DHT22;319;48.764;9.174;2023-03-30T01:57:15;16.40;95.60
674;DHT22;319;48.764;9.174;2023-03-30T01:59:50;16.30;95.90
674;DHT22;319;48.764;9.174;2023-03-30T02:02:22;16.40;96.10
674;DHT22;319;48.764;9.174;2023-03-30T02:04:51;16.30;96.10
674;DHT22;319;48.764;9.174;2023-03-30T02:07:21;16.30;96.30
674;DHT22;319;48.764;9.174;2023-03-30T02:09:52;16.30;96.40
674;DHT22;319;48.764;9.174;2023-03-30T02:12:21;16.30;96.70
674;DHT22;319;48.764;9.174;2023-03-30T02:14:49;16.20;96.80
674;DHT22;319;48.764;9.174;2023-03-30T02:17:20;16.20;96.90
674;DHT22;319;48.764;9.174;2023-03-30T02:19:49;16.20;96.90
674;DHT22;319;48.764;9.174;2023-03-30T02:22:18;16.30;96.90
674;DHT22;319;48.764;9.174;2023-03-30T02:24:47;16.30;96.80
674;DHT22;319;48.764;9.174;2023-03-30T02:27:16;16.20;96.70
674;DHT22;319;48.764;9.174;2023-03-30T02:29:44;16.20;96.80
674;DHT22;319;48.764;9.174;2023-03-30T02:32:17;16.20;96.70
674;DHT22;319;48.764;9.174;2023-03-30T02:35:06;16.20;96.80
674;DHT22;319;48.764;9.174;2023-03-30T02:37:59;16.20;96.80
674;DHT22;319;48.764;9.174;2023-03-30T02:40:35;16.20;96.60
674;DHT22;319;48.764;9.174;2023-03-30T02:43:25;16.30;96.60
674;DHT22;319;48.764;9.174;2023-03-30T02:46:07;16.30;96.60
674;DHT22;319;48.764;9.174;2023-03-30T02:48:39;16.30;96.70
674;DHT22;319;48.764;9.174;2023-03-30T02:51:22;16.30;96.60
674;DHT22;319;48.764;9.174;2023-03-30T02:53:56;16.30;96.60
674;DHT22;319;48.764;9.174;2023-03-30T02:56:32;16.30;96.90
674;DHT22;319;48.764;9.174;2023-03-30T02:59:07;16.30;97.30
674;DHT22;319;48.764;9.174;2023-03-30T03:01:36;16.20;97.70
674;DHT22;319;48.764;9.174;2023-03-30T03:04:06;16.10;98.40
674;DHT22;319;48.764;9.174;2023-03-30T03:06:35;15.90;98.90
674;DHT22;319;48.764;9.174;2023-03-30T03:09:02;15.70;99.80
674;DHT22;319;48.764;9.174;2023-03-30T03:11:29;15.50;99.90
674;DHT22;319;48.764;9.174;2023-03-30T03:13:56;15.20;99.90
674;DHT22;319;48.764;9.174;2023-03-30T03:16:25;15.00;99.90
674;DHT22;319;48.764;9.174;2023-03-30T03:18:52;14.90;99.90
674;DHT22;319;48.764;9.174;2023-03-30T03:21:18;14.90;99.90
674;DHT22;319;48.764;9.174;2023-03-30T03:23:45;14.90;99.90
674;DHT22;319;48.764;9.174;2023-03-30T03:26:13;14.80;99.90
674;DHT22;319;48.764;9.174;2023-03-30T03:28:39;14.80;99.90
674;DHT22;319;48.764;9.174;2023-03-30T03:31:07;14.80;99.90
674;DHT22;319;48.764;9.174;2023-03-30T03:33:35;14.80;99.90
674;DHT22;319;48.764;9.174;2023-03-30T03:36:02;14.80;99.90
674;DHT22;319;48.764;9.174;2023-03-30T03:38:30;14.80;99.90
674;DHT22;319;48.764;9.174;2023-03-30T03:40:57;14.80;99.90
674;DHT22;319;48.764;9.174;2023-03-30T03:43:25;14.80;99.90
674;DHT22;319;48.764;9.174;2023-03-30T03:45:52;14.80;99.90
674;DHT22;319;48.764;9.174;2023-03-30T03:48:20;14.90;99.90
674;DHT22;319;48.764;9.174;2023-03-30T03:50:51;14.90;99.90
674;DHT22;319;48.764;9.174;2023-03-30T03:53:18;14.90;99.90
674;DHT22;319;48.764;9.174;2023-03-30T03:55:45;14.90;99.90
674;DHT22;319;48.764;9.174;2023-03-30T03:58:12;14.90;99.90
674;DHT22;319;48.764;9.174;2023-03-30T04:00:40;14.90;99.90
674;DHT22;319;48.764;9.174;2023-03-30T04:03:07;15.00;99.90
674;DHT22;319;48.764;9.174;2023-03-30T04:05:33;14.90;99.90
674;DHT22;319;48.764;9.174;2023-03-30T04:08:02;14.90;99.90
674;DHT22;319;48.764;9.174;2023-03-30T04:10:29;14.90;99.90
674;DHT22;319;48.764;9.174;2023-03-30T04:12:56;14.90;99.90
674;DHT22;319;48.764;9.174;2023-03-30T04:15:24;14.90;99.90
674;DHT22;319;48.764;9.174;2023-03-30T04:17:51;14.90;99.90
674;DHT22;319;48.764;9.174;2023-03-30T04:20:22;14.90;99.90
674;DHT22;319;48.764;9.174;2023-03-30T04:22:50;14.90;99.90
674;DHT22;319;48.764;9.174;2023-03-30T04:25:20;15.00;99.90
674;DHT22;319;48.764;9.174;2023-03-30T04:27:47;15.00;99.90
674;DHT22;319;48.764;9.174;2023-03-30T04:30:16;15.00;99.90
674;DHT22;319;48.764;9.174;2023-03-30T04:32:44;15.00;99.90
674;DHT22;319;48.764;9.174;2023-03-30T04:35:11;15.10;99.90
674;DHT22;319;48.764;9.174;2023-03-30T04:37:39;15.10;99.90
674;DHT22;319;48.764;9.174;2023-03-30T04:40:08;15.10;99.90
674;DHT22;319;48.764;9.174;2023-03-30T04:42:36;15.10;99.90
674;DHT22;319;48.764;9.174;2023-03-30T04:45:03;15.20;99.90
674;DHT22;319;48.764;9.174;2023-03-30T04:47:31;15.20;99.90
674;DHT22;319;48.764;9.174;2023-03-30T04:49:58;15.30;99.90
674;DHT22;319;48.764;9.174;2023-03-30T04:52:25;15.30;99.90
674;DHT22;319;48.764;9.174;2023-03-30T04:54:52;15.40;99.90
674;DHT22;319;48.764;9.174;2023-03-30T04:57:19;15.40;99.90
674;DHT22;319;48.764;9.174;2023-03-30T04:59:47;15.40;99.90
674;DHT22;319;48.764;9.174;2023-03-30T05:02:44;15.40;99.90
674;DHT22;319;48.764;9.174;2023-03-30T05:05:37;15.40;99.90
674;DHT22;319;48.764;9.174;2023-03-30T05:08:04;15.60;99.90
674;DHT22;319;48.764;9.174;2023-03-30T05:10:30;15.60;99.90
674;DHT22;319;48.764;9.174;2023-03-30T05:12:57;15.50;99.90
674;DHT22;319;48.764;9.174;2023-03-30T05:15:26;15.40;99.90
674;DHT22;319;48.764;9.174;2023-03-30T05:17:52;15.40;99.90
674;DHT22;319;48.764;9.174;2023-03-30T05:20:21;15.40;99.90
674;DHT22;319;48.764;9.174;2023-03-30T05:22:49;15.50;99.90
674;DHT22;319;48.764;9.174;2023-03-30T05:25:18;15.50;99.90
674;DHT22;319;48.764;9.174;2023-03-30T05:27:45;15.60;99.90
674;DHT22;319;48.764;9.174;2023-03-30T05:30:12;15.60;99.90
674;DHT22;319;48.764;9.174;2023-03-30T05:32:40;15.60;99.90
674;DHT22;319;48.764;9.174;2023-03-30T05:35:07;15.50;99.90
674;DHT22;319;48.764;9.174;2023-03-30T05:37:34;15.60;99.90
674;DHT22;319;48.764;9.174;2023-03-30T05:40:01;15.50;99.90
674;DHT22;319;48.764;9.174;2023-03-30T05:42:31;15.60;99.90
674;DHT22;319;48.764;9.174;2023-03-30T05:44:58;15.50;99.90
674;DHT22;319;48.764;9.174;2023-03-30T05:47:25;15.50;99.90
674;DHT22;319;48.764;9.174;2023-03-30T05:49:54;15.50;99.90
674;DHT22;319;48.764;9.174;2023-03-30T05:52:21;15.50;99.90
674;DHT22;319;48.764;9.174;2023-03-30T05:54:48;15.50;99.90
674;DHT22;319;48.764;9.174;2023-03-30T05:57:15;15.60;99.90
674;DHT22;319;48.764;9.174;2023-03-30T05:59:42;15.70;99.90
674;DHT22;319;48.764;9.174;2023-03-30T06:02:09;15.70;99.90
674;DHT22;319;48.764;9.174;2023-03-30T06:04:37;15.70;99.90
674;DHT22;319;48.764;9.174;2023-03-30T06:07:05;15.70;99.90
674;DHT22;319;48.764;9.174;2023-03-30T06:09:32;15.80;99.90
674;DHT22;319;48.764;9.174;2023-03-30T06:11:59;15.80;99.90
674;DHT22;319;48.764;9.174;2023-03-30T06:14:27;15.70;99.90
674;DHT22;319;48.764;9.174;2023-03-30T06:16:53;15.70;99.90
674;DHT22;319;48.764;9.174;2023-03-30T06:19:21;15.60;99.90
674;DHT22;319;48.764;9.174;2023-03-30T06:21:48;15.60;99.90
674;DHT22;319;48.764;9.174;2023-03-30T06:24:16;15.60;99.90
674;DHT22;319;48.764;9.174;2023-03-30T06:26:45;15.60;99.90
674;DHT22;319;48.764;9.174;2023-03-30T06:29:13;15.60;99.90
674;DHT22;319;48.764;9.174;2023-03-30T06:31:40;15.60;99.90
674;DHT22;319;48.764;9.174;2023-03-30T06:34:07;15.50;99.90
674;DHT22;319;48.764;9.174;2023-03-30T06:36:33;15.60;99.90
674;DHT22;319;48.764;9.174;2023-03-30T06:39:01;15.60;99.90
674;DHT22;319;48.764;9.174;2023-03-30T06:41:31;15.70;99.90
674;DHT22;319;48.764;9.174;2023-03-30T06:43:57;15.80;99.90
674;DHT22;319;48.764;9.174;2023-03-30T06:46:24;15.90;99.90
674;DHT22;319;48.764;9.174;2023-03-30T06:48:51;16.00;99.90
674;DHT22;319;48.764;9.174;2023-03-30T06:51:18;16.00;99.90
674;DHT22;319;48.764;9.174;2023-03-30T06:53:45;16.00;99.90
674;DHT22;319;48.764;9.174;2023-03-30T06:56:12;16.10;99.90
674;DHT22;319;48.764;9.174;2023-03-30T06:58:40;16.10;99.90
674;DHT22;319;48.764;9.174;2023-03-30T07:01:08;16.10;99.90
674;DHT22;319;48.764;9.174;2023-03-30T07:03:35;16.00;99.90
674;DHT22;319;48.764;9.174;2023-03-30T07:06:03;16.00;99.90
674;DHT22;319;48.764;9.174;2023-03-30T07:08:32;16.00;99.90
674;DHT22;319;48.764;9.174;2023-03-30T07:10:59;16.00;99.90
674;DHT22;319;48.764;9.174;2023-03-30T07:13:25;16.10;99.90
674;DHT22;319;48.764;9.174;2023-03-30T07:15:53;16.10;99.90
674;DHT22;319;48.764;9.174;2023-03-30T07:18:20;16.10;99.90
674;DHT22;319;48.764;9.174;2023-03-30T07:20:47;16.20;99.90
674;DHT22;319;48.764;9.174;2023-03-30T07:23:14;16.10;99.90
674;DHT22;319;48.764;9.174;2023-03-30T07:25:42;16.00;99.90
674;DHT22;319;48.764;9.174;2023-03-30T07:28:09;15.90;99.90
674;DHT22;319;48.764;9.174;2023-03-30T07:30:36;15.70;99.90
674;DHT22;319;48.764;9.174;2023-03-30T07:33:04;15.50;99.90
674;DHT22;319;48.764;9.174;2023-03-30T07:35:31;15.40;99.90
674;DHT22;319;48.764;9.174;2023-03-30T07:38:01;15.20;99.90
674;DHT22;319;48.764;9.174;2023-03-30T07:40:35;15.20;99.90
674;DHT22;319;48.764;9.174;2023-03-30T07:43:01;15.20;99.90
674;DHT22;319;48.764;9.174;2023-03-30T07:45:28;15.10;99.90
674;DHT22;319;48.764;9.174;2023-03-30T07:47:55;15.00;99.90
674;DHT22;319;48.764;9.174;2023-03-30T07:50:24;14.90;99.90
674;DHT22;319;48.764;9.174;2023-03-30T07:52:50;14.90;99.90
674;DHT22;319;48.764;9.174;2023-03-30T07:55:18;14.90;99.90
674;DHT22;319;48.764;9.174;2023-03-30T07:57:44;14.80;99.90
674;DHT22;319;48.764;9.174;2023-03-30T08:00:12;14.80;99.90
674;DHT22;319;48.764;9.174;2023-03-30T08:02:40;14.70;99.90
674;DHT22;319;48.764;9.174;2023-03-30T08:05:07;14.70;99.90
674;DHT22;319;48.764;9.174;2023-03-30T08:07:36;14.70;99.90
674;DHT22;319;48.764;9.174;2023-03-30T08:10:04;14.70;99.90
674;DHT22;319;48.764;9.174;2023-03-30T08:12:32;14.70;99.90
674;DHT22;319;48.764;9.174;2023-03-30T08:14:59;14.70;99.90
674;DHT22;319;48.764;9.174;2023-03-30T08:17:26;14.70;99.90
674;DHT22;319;48.764;9.174;2023-03-30T08:19:53;14.80;99.90
674;DHT22;319;48.764;9.174;2023-03-30T08:22:20;14.90;99.90
674;DHT22;319;48.764;9.174;2023-03-30T08:24:49;14.90;99.90
674;DHT22;319;48.764;9.174;2023-03-30T08:27:15;14.80;99.90
674;DHT22;319;48.764;9.174;2023-03-30T08:29:42;14.70;99.90
674;DHT22;319;48.764;9.174;2023-03-30T08:32:09;14.80;99.90
674;DHT22;319;48.764;9.174;2023-03-30T08:34:36;14.90;99.90
674;DHT22;319;48.764;9.174;2023-03-30T08:37:02;14.90;99.90
674;DHT22;319;48.764;9.174;2023-03-30T08:39:30;14.80;99.90
674;DHT22;319;48.764;9.174;2023-03-30T08:42:06;14.90;99.90
674;DHT22;319;48.764;9.174;2023-03-30T08:44:35;15.00;99.90
674;DHT22;319;48.764;9.174;2023-03-30T08:47:04;15.00;99.90
674;DHT22;319;48.764;9.174;2023-03-30T08:49:37;15.00;99.90
674;DHT22;319;48.764;9.174;2023-03-30T08:52:09;15.00;99.90
674;DHT22;319;48.764;9.174;2023-03-30T08:54:38;14.90;99.90
674;DHT22;319;48.764;9.174;2023-03-30T08:57:09;14.80;99.90
674;DHT22;319;48.764;9.174;2023-03-30T08:59:44;14.50;99.90
674;DHT22;319;48.764;9.174;2023-03-30T09:02:16;14.40;99.90
674;DHT22;319;48.764;9.174;2023-03-30T09:04:52;14.30;99.90
674;DHT22;319;48.764;9.174;2023-03-30T09:07:23;14.20;99.90
674;DHT22;319;48.764;9.174;2023-03-30T09:09:52;14.20;99.90
674;DHT22;319;48.764;9.174;2023-03-30T09:12:26;14.10;99.90
674;DHT22;319;48.764;9.174;2023-03-30T09:15:01;14.00;99.90
674;DHT22;319;48.764;9.174;2023-03-30T09:17:31;14.00;99.90
674;DHT22;319;48.764;9.174;2023-03-30T09:20:03;13.90;99.90
674;DHT22;319;48.764;9.174;2023-03-30T09:22:34;13.90;99.90
674;DHT22;319;48.764;9.174;2023-03-30T09:25:10;13.80;99.90
674;DHT22;319;48.764;9.174;2023-03-30T09:27:46;13.80;99.90
674;DHT22;319;48.764;9.174;2023-03-30T09:30:17;13.90;99.90
674;DHT22;319;48.764;9.174;2023-03-30T09:32:57;14.00;99.90
674;DHT22;319;48.764;9.174;2023-03-30T09:35:28;14.10;99.90
674;DHT22;319;48.764;9.174;2023-03-30T09:37:58;14.20;99.90
674;DHT22;319;48.764;9.174;2023-03-30T09:40:33;14.40;99.90
674;DHT22;319;48.764;9.174;2023-03-30T09:43:09;14.50;99.90
674;DHT22;319;48.764;9.174;2023-03-30T09:45:38;14.60;99.90
674;DHT22;319;48.764;9.174;2023-03-30T09:48:07;14.80;99.90
674;DHT22;319;48.764;9.174;2023-03-30T09:50:38;14.90;99.90
674;DHT22;319;48.764;9.174;2023-03-30T09:53:09;15.00;99.90
674;DHT22;319;48.764;9.174;2023-03-30T09:55:54;15.20;99.90
674;DHT22;319;48.764;9.174;2023-03-30T09:58:27;15.20;99.90
674;DHT22;319;48.764;9.174;2023-03-30T10:01:04;15.30;99.90
674;DHT22;319;48.764;9.174;2023-03-30T10:03:33;15.40;99.90
674;DHT22;319;48.764;9.174;2023-03-30T10:06:02;15.40;99.90
674;DHT22;319;48.764;9.174;2023-03-30T10:08:30;15.50;99.90
674;DHT22;319;48.764;9.174;2023-03-30T10:10:58;15.50;99.90
674;DHT22;319;48.764;9.174;2023-03-30T10:13:30;15.60;99.90
674;DHT22;319;48.764;9.174;2023-03-30T10:16:02;15.90;99.90
674;DHT22;319;48.764;9.174;2023-03-30T10:18:38;16.10;99.90
674;DHT22;319;48.764;9.174;2023-03-30T10:21:15;16.30;99.90
674;DHT22;319;48.764;9.174;2023-03-30T10:23:44;16.50;99.90
674;DHT22;319;48.764;9.174;2023-03-30T10:26:12;16.60;99.90
674;DHT22;319;48.764;9.174;2023-03-30T10:28:51;16.90;99.90
674;DHT22;319;48.764;9.174;2023-03-30T10:31:21;17.10;99.90
674;DHT22;319;48.764;9.174;2023-03-30T10:33:49;17.10;99.90
674;DHT22;319;48.764;9.174;2023-03-30T10:36:20;17.30;99.90
674;DHT22;319;48.764;9.174;2023-03-30T10:38:48;17.20;99.90
674;DHT22;319;48.764;9.174;2023-03-30T10:41:19;17.10;99.90
674;DHT22;319;48.764;9.174;2023-03-30T10:43:47;17.00;99.90
674;DHT22;319;48.764;9.174;2023-03-30T10:46:17;16.80;99.90
674;DHT22;319;48.764;9.174;2023-03-30T10:48:55;16.80;99.90
674;DHT22;319;48.764;9.174;2023-03-30T10:51:32;16.70;99.90
674;DHT22;319;48.764;9.174;2023-03-30T10:54:07;16.50;99.90
674;DHT22;319;48.764;9.174;2023-03-30T10:56:38;16.50;99.90
674;DHT22;319;48.764;9.174;2023-03-30T10:59:22;16.50;99.90
674;DHT22;319;48.764;9.174;2023-03-30T11:02:01;16.50;99.90
674;DHT22;319;48.764;9.174;2023-03-30T11:04:42;16.50;99.90
674;DHT22;319;48.764;9.174;2023-03-30T11:07:16;16.70;99.90
674;DHT22;319;48.764;9.174;2023-03-30T11:09:52;16.50;99.90
674;DHT22;319;48.764;9.174;2023-03-30T11:12:20;16.50;99.90
674;DHT22;319;48.764;9.174;2023-03-30T11:14:51;16.40;99.90
674;DHT22;319;48.764;9.174;2023-03-30T11:17:28;16.60;99.90
674;DHT22;319;48.764;9.174;2023-03-30T11:19:59;16.70;99.90
674;DHT22;319;48.764;9.174;2023-03-30T11:22:37;16.90;99.90
674;DHT22;319;48.764;9.174;2023-03-30T11:25:18;17.10;99.90
674;DHT22;319;48.764;9.174;2023-03-30T11:27:51;17.10;99.90
674;DHT22;319;48.764;9.174;2023-03-30T11:30:23;17.20;99.90
674;DHT22;319;48.764;9.174;2023-03-30T11:32:56;17.40;99.90
674;DHT22;319;48.764;9.174;2023-03-30T11:35:32;17.50;99.90
674;DHT22;319;48.764;9.174;2023-03-30T11:38:08;17.70;99.90
674;DHT22;319;48.764;9.174;2023-03-30T11:40:40;18.10;99.90
674;DHT22;319;48.764;9.174;2023-03-30T11:43:09;18.30;99.90
674;DHT22;319;48.764;9.174;2023-03-30T11:45:51;18.50;99.90
674;DHT22;319;48.764;9.174;2023-03-30T11:48:39;18.80;99.90
674;DHT22;319;48.764;9.174;2023-03-30T11:51:23;18.90;99.20
674;DHT22;319;48.764;9.174;2023-03-30T11:53:55;18.80;99.00
674;DHT22;319;48.764;9.174;2023-03-30T11:56:29;18.70;98.70
674;DHT22;319;48.764;9.174;2023-03-30T11:59:03;18.80;98.90
674;DHT22;319;48.764;9.174;2023-03-30T12:01:59;18.70;98.70
674;DHT22;319;48.764;9.174;2023-03-30T12:04:35;18.70;98.70
674;DHT22;319;48.764;9.174;2023-03-30T12:07:10;18.70;98.70
674;DHT22;319;48.764;9.174;2023-03-30T12:09:43;18.70;98.70
674;DHT22;319;48.764;9.174;2023-03-30T12:12:14;18.80;98.60
674;DHT22;319;48.764;9.174;2023-03-30T12:14:50;18.70;98.70
674;DHT22;319;48.764;9.174;2023-03-30T12:17:28;18.60;98.50
674;DHT22;319;48.764;9.174;2023-03-30T12:20:04;18.40;98.70
674;DHT22;319;48.764;9.174;2023-03-30T12:22:35;18.40;98.70
674;DHT22;319;48.764;9.174;2023-03-30T12:25:12;18.10;99.20
674;DHT22;319;48.764;9.174;2023-03-30T12:28:02;18.00;99.50
674;DHT22;319;48.764;9.174;2023-03-30T12:30:30;17.80;99.20
674;DHT22;319;48.764;9.174;2023-03-30T12:33:00;17.90;99.50
674;DHT22;319;48.764;9.174;2023-03-30T12:35:54;17.80;99.10
674;DHT22;319;48.764;9.174;2023-03-30T12:38:23;17.90;99.40
674;DHT22;319;48.764;9.174;2023-03-30T12:41:02;17.90;99.40
674;DHT22;319;48.764;9.174;2023-03-30T12:43:37;17.90;99.20
674;DHT22;319;48.764;9.174;2023-03-30T12:46:10;17.80;98.60
674;DHT22;319;48.764;9.174;2023-03-30T12:48:43;17.70;98.50
674;DHT22;319;48.764;9.174;2023-03-30T12:51:26;17.80;98.90
674;DHT22;319;48.764;9.174;2023-03-30T12:54:18;17.80;97.70
674;DHT22;319;48.764;9.174;2023-03-30T12:56:55;17.90;97.60
674;DHT22;319;48.764;9.174;2023-03-30T12:59:33;17.90;97.30
674;DHT22;319;48.764;9.174;2023-03-30T13:02:41;18.10;97.40
674;DHT22;319;48.764;9.174;2023-03-30T13:05:22;18.20;96.90
674;DHT22;319;48.764;9.174;2023-03-30T13:07:53;18.30;96.40
674;DHT22;319;48.764;9.174;2023-03-30T13:10:40;18.40;95.80
674;DHT22;319;48.764;9.174;2023-03-30T13:13:17;18.30;95.40
674;DHT22;319;48.764;9.174;2023-03-30T13:15:49;18.40;95.00
674;DHT22;319;48.764;9.174;2023-03-30T13:18:32;18.50;94.70
674;DHT22;319;48.764;9.174;2023-03-30T13:24:01;18.50;93.90
674;DHT22;319;48.764;9.174;2023-03-30T13:26:39;18.30;93.40
674;DHT22;319;48.764;9.174;2023-03-30T13:29:08;18.40;93.30
674;DHT22;319;48.764;9.174;2023-03-30T13:32:02;18.40;92.80
674;DHT22;319;48.764;9.174;2023-03-30T13:37:52;18.30;92.60
674;DHT22;319;48.764;9.174;2023-03-30T13:40:25;18.30;92.80
674;DHT22;319;48.764;9.174;2023-03-30T13:43:07;18.30;93.00
674;DHT22;319;48.764;9.174;2023-03-30T13:45:45;18.40;93.30
674;DHT22;319;48.764;9.174;2023-03-30T13:48:26;18.40;93.50
674;DHT22;319;48.764;9.174;2023-03-30T13:50:58;18.40;93.40
674;DHT22;319;48.764;9.174;2023-03-30T13:53:29;18.20;93.50
674;DHT22;319;48.764;9.174;2023-03-30T13:55:57;18.20;93.60
674;DHT22;319;48.764;9.174;2023-03-30T13:58:27;18.00;93.20
674;DHT22;319;48.764;9.174;2023-03-30T14:00:57;18.10;93.40
674;DHT22;319;48.764;9.174;2023-03-30T14:03:27;18.40;93.10
674;DHT22;319;48.764;9.174;2023-03-30T14:05:58;18.50;93.00
674;DHT22;319;48.764;9.174;2023-03-30T14:08:28;18.40;92.00
674;DHT22;319;48.764;9.174;2023-03-30T14:11:06;18.40;91.70
674;DHT22;319;48.764;9.174;2023-03-30T14:13:35;18.30;91.60
674;DHT22;319;48.764;9.174;2023-03-30T14:16:03;18.30;91.10
674;DHT22;319;48.764;9.174;2023-03-30T14:18:31;18.40;91.30
674;DHT22;319;48.764;9.174;2023-03-30T14:21:00;18.40;90.50
674;DHT22;319;48.764;9.174;2023-03-30T14:23:33;18.40;90.80
674;DHT22;319;48.764;9.174;2023-03-30T14:26:03;18.40;90.80
674;DHT22;319;48.764;9.174;2023-03-30T14:28:34;18.30;90.40
674;DHT22;319;48.764;9.174;2023-03-30T14:31:08;18.30;90.20
674;DHT22;319;48.764;9.174;2023-03-30T14:33:37;18.30;90.30
674;DHT22;319;48.764;9.174;2023-03-30T14:36:05;18.20;89.00
674;DHT22;319;48.764;9.174;2023-03-30T14:38:35;18.20;89.00
674;DHT22;319;48.764;9.174;2023-03-30T14:41:07;18.20;89.20
674;DHT22;319;48.764;9.174;2023-03-30T14:43:38;18.20;89.20
674;DHT22;319;48.764;9.174;2023-03-30T14:46:08;18.30;88.90
674;DHT22;319;48.764;9.174;2023-03-30T14:48:38;18.40;88.80
674;DHT22;319;48.764;9.174;2023-03-30T14:51:17;18.50;88.70
674;DHT22;319;48.764;9.174;2023-03-30T14:53:45;18.50;89.40
674;DHT22;319;48.764;9.174;2023-03-30T14:56:16;18.40;89.80
674;DHT22;319;48.764;9.174;2023-03-30T14:58:44;18.40;90.00
674;DHT22;319;48.764;9.174;2023-03-30T15:01:14;18.40;90.20
674;DHT22;319;48.764;9.174;2023-03-30T15:03:42;18.30;90.60
674;DHT22;319;48.764;9.174;2023-03-30T15:06:14;18.30;90.30
674;DHT22;319;48.764;9.174;2023-03-30T15:08:45;18.40;90.60
674;DHT22;319;48.764;9.174;2023-03-30T15:11:18;18.40;90.40
674;DHT22;319;48.764;9.174;2023-03-30T15:13:49;18.40;90.40
674;DHT22;319;48.764;9.174;2023-03-30T15:16:19;18.30;90.40
674;DHT22;319;48.764;9.174;2023-03-30T15:18:49;18.30;90.60
674;DHT22;319;48.764;9.174;2023-03-30T15:21:17;18.20;90.40
674;DHT22;319;48.764;9.174;2023-03-30T15:23:45;18.20;90.70
674;DHT22;319;48.764;9.174;2023-03-30T15:26:15;18.10;91.70
674;DHT22;319;48.764;9.174;2023-03-30T15:28:44;17.90;92.40
674;DHT22;319;48.764;9.174;2023-03-30T15:31:13;17.80;92.20
674;DHT22;319;48.764;9.174;2023-03-30T15:33:43;17.60;91.80
674;DHT22;319;48.764;9.174;2023-03-30T15:36:12;17.40;91.80
674;DHT22;319;48.764;9.174;2023-03-30T15:38:46;17.40;91.70
674;DHT22;319;48.764;9.174;2023-03-30T15:41:15;17.40;92.60
674;DHT22;319;48.764;9.174;2023-03-30T15:43:53;17.20;92.20
674;DHT22;319;48.764;9.174;2023-03-30T15:46:21;17.10;92.20
674;DHT22;319;48.764;9.174;2023-03-30T15:48:52;17.20;91.40
674;DHT22;319;48.764;9.174;2023-03-30T15:51:24;17.40;91.10
674;DHT22;319;48.764;9.174;2023-03-30T15:53:54;17.60;90.60
674;DHT22;319;48.764;9.174;2023-03-30T15:56:29;17.70;90.00
674;DHT22;319;48.764;9.174;2023-03-30T15:58:58;17.60;88.70
674;DHT22;319;48.764;9.174;2023-03-30T16:01:37;17.50;88.40
674;DHT22;319;48.764;9.174;2023-03-30T16:04:06;17.30;87.10
674;DHT22;319;48.764;9.174;2023-03-30T16:06:50;17.20;88.10
674;DHT22;319;48.764;9.174;2023-03-30T16:09:34;17.10;88.50
674;DHT22;319;48.764;9.174;2023-03-30T16:12:03;17.10;88.80
674;DHT22;319;48.764;9.174;2023-03-30T16:14:30;16.90;89.00
674;DHT22;319;48.764;9.174;2023-03-30T16:16:57;16.90;88.20
674;DHT22;319;48.764;9.174;2023-03-30T16:19:24;16.80;88.50
674;DHT22;319;48.764;9.174;2023-03-30T16:21:51;16.70;88.70
674;DHT22;319;48.764;9.174;2023-03-30T16:24:18;16.70;88.50
674;DHT22;319;48.764;9.174;2023-03-30T16:26:46;16.60;88.90
674;DHT22;319;48.764;9.174;2023-03-30T16:29:20;16.60;88.70
674;DHT22;319;48.764;9.174;2023-03-30T16:31:48;16.50;89.20
674;DHT22;319;48.764;9.174;2023-03-30T16:34:18;16.40;90.00
674;DHT22;319;48.764;9.174;2023-03-30T16:36:46;16.30;90.00
674;DHT22;319;48.764;9.174;2023-03-30T16:39:16;16.20;90.30
674;DHT22;319;48.764;9.174;2023-03-30T16:41:43;16.30;90.30
674;DHT22;319;48.764;9.174;2023-03-30T16:44:10;16.20;90.50
674;DHT22;319;48.764;9.174;2023-03-30T16:46:39;16.20;90.50
674;DHT22;319;48.764;9.174;2023-03-30T16:49:10;16.20;90.60
674;DHT22;319;48.764;9.174;2023-03-30T16:51:37;16.10;90.80
674;DHT22;319;48.764;9.174;2023-03-30T16:54:04;16.10;91.20
674;DHT22;319;48.764;9.174;2023-03-30T16:56:31;16.10;91.40
674;DHT22;319;48.764;9.174;2023-03-30T16:58:58;16.00;91.60
674;DHT22;319;48.764;9.174;2023-03-30T17:01:26;16.00;91.70
674;DHT22;319;48.764;9.174;2023-03-30T17:03:55;16.00;91.90
674;DHT22;319;48.764;9.174;2023-03-30T17:06:22;15.90;92.10
674;DHT22;319;48.764;9.174;2023-03-30T17:08:49;15.90;92.30
674;DHT22;319;48.764;9.174;2023-03-30T17:11:16;15.90;92.40
674;DHT22;319;48.764;9.174;2023-03-30T17:13:43;15.90;92.50